Time;durP1;ratioP1;P1;durP2;ratioP2;P2;SDS_P1;SDS_P2;PMS_P1;PMS_P2;Temp;Humidity;BMP_temperature;BMP_pressure;BME280_temperature;BME280_humidity;BME280_pressure;Samples;Min_cycle;Max_cycle;Signal;HPM_P1;HPM_P2
2023/08/09 00:00:49;;;;;;;2.50;1.80;;;;;;;16.37;66.95;98892.84;223353;182;139017;-65
2023/08/09 00:06:12;;;;;;;3.10;1.50;;;;;;;16.46;67.26;98894.02;223294;182;136832;-65
2023/08/09 00:11:16;;;;;;;2.40;1.60;;;;;;;16.50;67.37;98897.77;223277;183;145984;-64
2023/08/09 00:16:19;;;;;;;2.50;1.50;;;;;;;16.48;67.58;98895.83;223383;183;139730;-62
2023/08/09 00:21:22;;;;;;;2.70;1.50;;;;;;;16.45;67.91;98894.15;223394;182;136932;-63
2023/08/09 00:26:26;;;;;;;2.30;1.80;;;;;;;16.40;68.20;98888.64;223434;183;147447;-65
2023/08/09 00:31:29;;;;;;;3.40;2.00;;;;;;;16.35;68.58;98885.33;223271;183;139357;-64
2023/08/09 00:36:34;;;;;;;2.50;1.50;;;;;;;16.29;68.91;98891.17;223358;183;137096;-60
2023/08/09 00:41:39;;;;;;;4.50;1.70;;;;;;;16.25;69.22;98887.85;223413;183;145647;-64
2023/08/09 00:46:43;;;;;;;4.50;1.90;;;;;;;16.25;69.36;98883.22;223248;183;138841;-60
2023/08/09 00:51:47;;;;;;;2.80;1.80;;;;;;;16.24;69.65;98887.50;223410;183;136829;-62
2023/08/09 00:56:51;;;;;;;3.80;1.70;;;;;;;16.28;69.81;98885.38;223427;183;146481;-61
2023/08/09 01:01:54;;;;;;;3.30;1.70;;;;;;;16.25;69.93;98887.66;223356;183;139015;-62
2023/08/09 01:07:27;;;;;;;2.60;1.60;;;;;;;16.22;70.13;98896.17;223340;183;136522;-64
2023/08/09 01:12:39;;;;;;;2.90;1.70;;;;;;;16.19;70.50;98895.38;223284;182;145764;-65
2023/08/09 01:17:49;;;;;;;3.10;1.60;;;;;;;16.16;71.12;98896.30;223289;183;140712;-64
2023/08/09 01:23:02;;;;;;;6.20;2.00;;;;;;;16.16;71.59;98902.98;223244;183;137651;-62
2023/08/09 01:28:05;;;;;;;2.90;1.90;;;;;;;16.17;71.89;98906.59;223394;182;145890;-64
2023/08/09 01:33:09;;;;;;;2.40;1.60;;;;;;;16.19;72.06;98907.86;223221;183;139395;-63
2023/08/09 01:38:44;;;;;;;3.70;2.10;;;;;;;16.20;72.45;98907.92;223211;181;140575;-63
2023/08/09 01:43:47;;;;;;;3.70;2.00;;;;;;;16.19;72.65;98904.25;223159;183;146110;-60
2023/08/09 01:48:50;;;;;;;2.90;1.80;;;;;;;16.16;73.02;98900.92;223201;183;140239;-63
2023/08/09 01:53:54;;;;;;;2.00;1.70;;;;;;;16.15;73.42;98898.74;223445;182;138456;-65
2023/08/09 01:58:57;;;;;;;4.10;1.80;;;;;;;16.16;73.75;98901.14;223348;182;145772;-68
2023/08/09 02:04:09;;;;;;;3.20;2.10;;;;;;;16.20;74.04;98901.29;223323;182;140864;-63
2023/08/09 02:09:18;;;;;;;2.80;2.10;;;;;;;16.26;73.99;98898.48;223391;182;136841;-66
2023/08/09 02:14:22;;;;;;;3.00;2.00;;;;;;;16.27;74.15;98901.94;223345;182;148244;-63
2023/08/09 02:19:25;;;;;;;3.10;1.90;;;;;;;16.28;73.97;98908.84;223317;183;139760;-61
2023/08/09 02:24:28;;;;;;;2.60;1.60;;;;;;;16.32;73.49;98912.80;223374;182;136858;-63
2023/08/09 02:29:32;;;;;;;2.50;1.70;;;;;;;16.32;73.78;98914.04;223179;183;146271;-62
2023/08/09 02:34:35;;;;;;;2.80;1.70;;;;;;;16.33;74.05;98913.94;223345;183;138902;-63
2023/08/09 02:39:38;;;;;;;3.90;1.90;;;;;;;16.38;73.47;98915.70;223415;182;137064;-61
2023/08/09 02:44:42;;;;;;;3.90;1.80;;;;;;;16.41;73.75;98910.94;223392;182;145845;-63
2023/08/09 02:49:45;;;;;;;3.20;1.70;;;;;;;16.42;73.75;98913.60;223295;182;139647;-62
2023/08/09 02:54:48;;;;;;;3.50;1.90;;;;;;;16.39;73.77;98908.41;223339;182;136568;-64
2023/08/09 02:59:52;;;;;;;3.50;2.10;;;;;;;16.38;74.01;98914.15;223322;182;145458;-66
2023/08/09 03:04:55;;;;;;;3.10;1.70;;;;;;;16.37;74.32;98912.73;223219;183;140189;-66
2023/08/09 03:09:58;;;;;;;2.90;1.70;;;;;;;16.34;74.19;98914.60;223373;183;137590;-66
2023/08/09 03:15:04;;;;;;;3.50;1.80;;;;;;;16.37;74.18;98917.20;223363;183;145527;-64
2023/08/09 03:20:14;;;;;;;2.80;1.90;;;;;;;16.42;74.43;98916.56;223216;183;138762;-61
2023/08/09 03:25:19;;;;;;;3.90;2.20;;;;;;;16.43;74.57;98916.67;223383;183;137577;-64
2023/08/09 03:30:23;;;;;;;7.80;2.80;;;;;;;16.41;74.45;98923.13;223268;184;146625;-65
2023/08/09 03:35:28;;;;;;;4.10;2.40;;;;;;;16.40;74.53;98927.36;223310;183;138948;-65
2023/08/09 03:40:32;;;;;;;4.90;2.60;;;;;;;16.38;74.52;98925.88;223271;183;137821;-66
2023/08/09 03:45:35;;;;;;;4.80;2.50;;;;;;;16.39;74.58;98925.08;223330;183;146714;-67
2023/08/09 03:50:40;;;;;;;5.30;2.20;;;;;;;16.41;74.72;98916.67;223324;183;138962;-69
2023/08/09 03:55:43;;;;;;;5.80;2.70;;;;;;;16.44;74.60;98909.59;223339;184;137462;-68
2023/08/09 04:00:47;;;;;;;7.20;2.30;;;;;;;16.45;74.76;98915.81;223253;183;147658;-66
2023/08/09 04:05:50;;;;;;;6.40;2.90;;;;;;;16.41;74.87;98913.29;223281;184;139644;-65
2023/08/09 04:10:54;;;;;;;4.70;2.40;;;;;;;16.40;74.79;98913.00;223332;183;137621;-62
2023/08/09 04:15:57;;;;;;;4.80;2.80;;;;;;;16.42;74.74;98916.98;223174;183;147831;-61
2023/08/09 04:21:00;;;;;;;6.30;2.90;;;;;;;16.47;74.87;98924.20;223180;183;278070;-65
2023/08/09 04:26:04;;;;;;;3.90;2.50;;;;;;;16.54;74.45;98927.32;223318;183;138562;-64
2023/08/09 04:31:07;;;;;;;10.00;2.80;;;;;;;16.64;74.05;98929.36;223164;183;148151;-68
2023/08/09 04:36:10;;;;;;;4.20;2.30;;;;;;;16.69;73.91;98924.73;223381;183;138755;-65
2023/08/09 04:41:13;;;;;;;3.40;2.50;;;;;;;16.78;73.45;98929.73;223263;183;137389;-64
2023/08/09 04:46:17;;;;;;;5.90;2.20;;;;;;;16.84;72.85;98933.34;223217;183;147625;-75
2023/08/09 04:51:26;;;;;;;7.60;2.10;;;;;;;16.83;72.88;98934.89;223195;183;138814;-69
2023/08/09 04:56:35;;;;;;;6.40;2.30;;;;;;;16.87;72.77;98935.61;223361;183;139143;-69
2023/08/09 05:01:38;;;;;;;4.20;2.40;;;;;;;16.91;72.67;98939.89;223196;183;147497;-67
2023/08/09 05:06:41;;;;;;;7.10;2.50;;;;;;;16.92;72.87;98934.15;223311;184;140402;-68
2023/08/09 05:11:44;;;;;;;6.30;2.80;;;;;;;16.93;72.99;98931.58;223270;184;137210;-66
2023/08/09 05:16:47;;;;;;;5.60;2.50;;;;;;;16.92;73.09;98925.58;223173;183;148657;-63
2023/08/09 05:21:50;;;;;;;5.30;2.20;;;;;;;16.94;73.64;98927.55;223247;183;139861;-64
2023/08/09 05:26:53;;;;;;;9.20;2.60;;;;;;;17.02;73.69;98934.52;223411;183;137905;-60
2023/08/09 05:31:56;;;;;;;5.70;2.80;;;;;;;17.14;73.69;98930.08;223281;182;148985;-63
2023/08/09 05:37:00;;;;;;;4.90;2.60;;;;;;;17.24;73.49;98932.73;223233;183;140449;-63
2023/08/09 05:42:04;;;;;;;34.10;20.90;;;;;;;17.34;72.31;98938.44;223395;183;138089;-63
2023/08/09 05:47:07;;;;;;;5.50;2.40;;;;;;;17.47;70.72;98938.33;223407;183;148545;-61
2023/08/09 05:52:14;;;;;;;6.50;2.20;;;;;;;17.63;69.99;98940.64;223340;182;142117;-62
2023/08/09 05:57:17;;;;;;;5.00;1.90;;;;;;;17.76;68.90;98943.36;223444;182;137595;-62
2023/08/09 06:02:20;;;;;;;80.50;63.50;;;;;;;17.92;67.50;98940.45;223271;183;147688;-60
2023/08/09 06:07:23;;;;;;;4.70;2.90;;;;;;;18.04;67.03;98936.63;223273;183;141454;-61
2023/08/09 06:12:26;;;;;;;22.80;16.50;;;;;;;18.15;65.95;98929.51;223368;183;138132;-61
2023/08/09 06:17:29;;;;;;;8.90;4.80;;;;;;;18.25;65.36;98931.44;223273;183;147215;-64
2023/08/09 06:22:32;;;;;;;4.70;2.10;;;;;;;18.30;64.58;98932.17;223198;182;139219;-65
2023/08/09 06:27:36;;;;;;;59.80;47.10;;;;;;;18.35;64.61;98929.77;223258;182;139362;-64
2023/08/09 06:32:40;;;;;;;6.20;4.10;;;;;;;18.42;64.74;98929.73;223328;183;147750;-62
2023/08/09 06:37:43;;;;;;;5.60;2.00;;;;;;;18.47;64.68;98933.24;223330;182;138855;-64
2023/08/09 06:42:46;;;;;;;3.50;1.80;;;;;;;18.51;64.49;98933.02;223257;183;140473;-65
2023/08/09 06:47:51;;;;;;;5.00;1.90;;;;;;;18.58;64.27;98931.96;223241;183;147623;-65
2023/08/09 06:52:54;;;;;;;2.50;1.60;;;;;;;18.67;63.39;98934.54;223325;183;138742;-68
2023/08/09 06:57:57;;;;;;;5.80;1.90;;;;;;;18.68;62.86;98935.19;223265;182;139543;-71
2023/08/09 07:03:01;;;;;;;4.40;1.70;;;;;;;18.71;62.38;98936.12;223308;182;148662;-62
2023/08/09 07:08:05;;;;;;;4.50;1.70;;;;;;;18.81;62.74;98933.42;223184;183;139440;-63
2023/08/09 07:13:08;;;;;;;5.10;1.80;;;;;;;18.94;62.63;98931.73;223353;183;137084;-63
2023/08/09 07:18:11;;;;;;;3.90;1.70;;;;;;;19.04;62.10;98930.95;223334;183;147546;-64
2023/08/09 07:23:14;;;;;;;124.20;93.50;;;;;;;19.12;61.64;98928.18;223253;183;139046;-63
2023/08/09 07:28:28;;;;;;;8.60;4.70;;;;;;;19.21;61.86;98922.92;223231;183;138139;-65
2023/08/09 07:33:31;;;;;;;4.30;1.90;;;;;;;19.31;61.32;98929.19;223322;183;148061;-65
2023/08/09 07:38:46;;;;;;;4.50;1.60;;;;;;;19.34;60.36;98929.23;223322;183;139384;-63
2023/08/09 07:43:50;;;;;;;4.20;1.90;;;;;;;19.36;59.42;98935.17;223240;184;137563;-64
2023/08/09 07:48:54;;;;;;;5.10;2.20;;;;;;;19.39;59.52;98930.45;223275;183;147712;-65
2023/08/09 07:53:57;;;;;;;6.10;2.00;;;;;;;19.52;59.56;98933.58;223175;183;140536;-62
2023/08/09 07:59:00;;;;;;;5.20;1.90;;;;;;;19.65;59.56;98927.87;223291;183;137826;-63
2023/08/09 08:04:03;;;;;;;23.00;16.80;;;;;;;19.81;58.46;98928.65;223246;183;150745;-61
2023/08/09 08:09:12;;;;;;;3.40;1.90;;;;;;;19.97;58.59;98920.88;223290;183;139412;-63
2023/08/09 08:14:16;;;;;;;3.70;2.20;;;;;;;20.05;57.33;98916.41;223266;184;137832;-62
2023/08/09 08:19:20;;;;;;;53.20;43.10;;;;;;;20.04;56.80;98919.95;223189;183;150156;-65
2023/08/09 08:24:24;;;;;;;6.30;3.40;;;;;;;20.10;56.72;98922.25;223153;183;139104;-63
2023/08/09 08:29:28;;;;;;;3.50;2.00;;;;;;;20.21;55.38;98918.50;223263;183;138979;-66
2023/08/09 08:34:32;;;;;;;82.80;64.70;;;;;;;20.35;55.83;98914.52;223285;182;147480;-67
2023/08/09 08:39:38;;;;;;;5.70;3.40;;;;;;;20.57;55.75;98910.98;223027;183;139005;-66
2023/08/09 08:44:41;;;;;;;2.70;1.60;;;;;;;20.70;53.76;98904.39;223068;183;136959;-64
2023/08/09 08:49:49;;;;;;;4.30;1.60;;;;;;;20.77;53.12;98913.60;223089;184;150670;-63
2023/08/09 08:54:53;;;;;;;2.70;1.30;;;;;;;20.83;52.10;98914.98;223109;183;138937;-64
2023/08/09 08:59:58;;;;;;;3.50;1.50;;;;;;;20.87;51.50;98915.28;223049;183;137644;-63
2023/08/09 09:05:06;;;;;;;2.40;1.60;;;;;;;20.92;51.23;98910.36;223067;183;148550;-62
2023/08/09 09:10:10;;;;;;;2.30;1.50;;;;;;;21.02;51.92;98911.22;223088;183;139586;-64
2023/08/09 09:15:14;;;;;;;4.40;1.50;;;;;;;21.11;50.71;98911.77;222905;183;137877;-63
2023/08/09 09:20:24;;;;;;;148.50;108.70;;;;;;;21.13;49.96;98909.53;223172;183;147596;-62
2023/08/09 09:25:27;;;;;;;9.00;5.20;;;;;;;21.22;50.25;98906.90;223061;183;140340;-63
2023/08/09 09:30:32;;;;;;;3.30;1.80;;;;;;;21.37;48.91;98903.52;223219;183;139190;-61
2023/08/09 09:35:37;;;;;;;3.20;1.50;;;;;;;21.47;48.89;98894.02;223160;183;149703;-61
2023/08/09 09:40:42;;;;;;;2.60;1.30;;;;;;;21.61;49.12;98889.89;223111;183;139426;-61
2023/08/09 09:45:45;;;;;;;3.30;1.40;;;;;;;21.81;49.13;98885.52;223099;182;137411;-62
2023/08/09 09:50:49;;;;;;;3.30;1.50;;;;;;;21.96;48.26;98888.13;223301;182;147487;-62
2023/08/09 09:55:52;;;;;;;2.60;1.30;;;;;;;21.96;47.35;98886.31;223120;182;139882;-62
2023/08/09 10:00:56;;;;;;;4.90;1.50;;;;;;;21.94;47.24;98886.52;223157;182;138635;-62
2023/08/09 10:06:01;;;;;;;3.90;1.40;;;;;;;21.99;46.87;98876.08;223138;183;148011;-66
2023/08/09 10:11:05;;;;;;;2.30;1.50;;;;;;;22.05;46.53;98873.59;223219;183;141630;-61
2023/08/09 10:16:10;;;;;;;1.90;1.30;;;;;;;22.10;46.40;98867.11;223041;183;138175;-62
2023/08/09 10:21:17;;;;;;;3.90;1.40;;;;;;;22.14;46.48;98859.98;223152;183;148227;-62
2023/08/09 10:26:29;;;;;;;4.40;1.60;;;;;;;22.24;46.87;98862.77;223080;179;139028;-62
2023/08/09 10:31:54;;;;;;;2.50;1.40;;;;;;;22.43;45.82;98857.10;223095;182;138799;-61
2023/08/09 10:37:00;;;;;;;87.80;67.30;;;;;;;22.51;45.08;98858.09;223179;183;147813;-63
2023/08/09 10:42:05;;;;;;;7.20;4.60;;;;;;;22.42;44.69;98863.11;223070;183;140432;-61
2023/08/09 10:47:19;;;;;;;6.10;1.60;;;;;;;22.30;44.72;98865.92;223207;182;136946;-60
2023/08/09 10:52:37;;;;;;;2.10;1.50;;;;;;;22.23;45.48;98865.14;223024;182;149299;-62
2023/08/09 10:57:45;;;;;;;3.60;1.70;;;;;;;22.19;45.62;98868.44;223122;182;144197;-62
2023/08/09 11:02:50;;;;;;;2.50;1.40;;;;;;;22.12;45.12;98869.71;223223;183;137711;-62
2023/08/09 11:07:57;;;;;;;4.10;1.80;;;;;;;22.01;44.74;98872.61;223102;183;147905;-61
2023/08/09 11:13:04;;;;;;;6.80;1.70;;;;;;;21.91;45.00;98865.72;223113;182;139062;-62
2023/08/09 11:18:07;;;;;;;4.30;1.50;;;;;;;21.87;45.32;98860.66;223030;183;137631;-62
2023/08/09 11:23:11;;;;;;;7.10;1.70;;;;;;;21.96;45.30;98852.91;223063;183;148046;-62
2023/08/09 11:28:15;;;;;;;2.70;1.40;;;;;;;22.28;45.09;98851.29;223154;183;139403;-62
2023/08/09 11:33:18;;;;;;;2.10;1.50;;;;;;;22.52;44.45;98855.52;223168;184;140461;-62
2023/08/09 11:38:21;;;;;;;3.90;1.70;;;;;;;22.47;44.17;98868.00;223250;183;148433;-62
2023/08/09 11:43:25;;;;;;;3.00;1.70;;;;;;;22.26;44.27;98875.19;222909;183;139568;-63
2023/08/09 11:48:31;;;;;;;3.70;1.50;;;;;;;22.02;45.59;98872.89;223104;183;138841;-61
2023/08/09 11:53:36;;;;;;;3.90;1.50;;;;;;;21.94;46.06;98869.91;223117;183;147763;-60
2023/08/09 11:58:43;;;;;;;7.70;1.70;;;;;;;21.87;46.47;98870.73;223099;183;138846;-61
2023/08/09 12:03:49;;;;;;;3.10;1.80;;;;;;;21.82;47.15;98871.08;223066;183;138085;-61
2023/08/09 12:08:53;;;;;;;4.00;1.70;;;;;;;21.79;47.55;98881.27;223234;183;147360;-61
2023/08/09 12:13:57;;;;;;;5.00;1.90;;;;;;;21.71;48.20;98882.66;223197;182;139084;-61
2023/08/09 12:19:00;;;;;;;4.00;1.90;;;;;;;21.65;48.49;98887.08;223153;183;136746;-61
2023/08/09 12:24:04;;;;;;;6.00;1.80;;;;;;;21.65;49.52;98888.94;223165;183;148755;-61
2023/08/09 12:29:09;;;;;;;2.50;1.60;;;;;;;21.56;50.19;98894.85;223162;183;139026;-61
2023/08/09 12:34:13;;;;;;;260.40;209.70;;;;;;;21.43;50.60;98903.41;223208;182;140259;-61
2023/08/09 12:39:17;;;;;;;5.90;4.00;;;;;;;21.38;51.22;98907.81;223135;183;147401;-62
2023/08/09 12:44:22;;;;;;;7.00;4.80;;;;;;;21.30;51.71;98916.60;223195;183;139677;-61
2023/08/09 12:49:29;;;;;;;5.00;1.70;;;;;;;21.21;52.11;98923.08;223169;183;137508;-61
2023/08/09 12:54:32;;;;;;;6.00;2.00;;;;;;;21.15;52.39;98925.05;223058;183;148674;-61
2023/08/09 12:59:35;;;;;;;3.70;2.10;;;;;;;21.13;53.06;98926.02;222983;183;138884;-61
2023/08/09 13:04:40;;;;;;;3.10;1.80;;;;;;;21.19;53.51;98931.13;223040;182;137853;-61
2023/08/09 13:09:43;;;;;;;4.20;2.00;;;;;;;21.18;53.55;98934.45;223127;183;148884;-61
2023/08/09 13:14:46;;;;;;;2.90;1.90;;;;;;;21.12;53.80;98935.34;223083;183;139138;-61
2023/08/09 13:19:49;;;;;;;5.00;2.00;;;;;;;21.04;53.54;98939.23;223104;182;136994;-63
2023/08/09 13:24:52;;;;;;;5.60;2.20;;;;;;;20.94;53.97;98942.05;223152;183;148119;-61
2023/08/09 13:29:56;;;;;;;2.60;1.80;;;;;;;20.92;54.92;98938.30;223046;183;139681;-62
2023/08/09 13:34:59;;;;;;;4.80;2.40;;;;;;;20.89;55.11;98929.61;223076;183;136737;-62
2023/08/09 13:40:09;;;;;;;2.50;1.80;;;;;;;20.89;55.42;98927.14;223259;182;147568;-61
2023/08/09 13:45:12;;;;;;;3.00;1.90;;;;;;;20.88;55.42;98924.14;223230;183;139757;-62
2023/08/09 13:50:16;;;;;;;4.40;2.30;;;;;;;20.83;55.66;98925.56;223230;183;138031;-61
2023/08/09 13:55:19;;;;;;;3.10;2.00;;;;;;;20.82;56.05;98924.79;223145;184;147990;-61
2023/08/09 14:00:23;;;;;;;6.20;2.30;;;;;;;20.84;56.06;98924.69;223107;182;138924;-61
2023/08/09 14:05:26;;;;;;;3.80;1.70;;;;;;;20.81;56.09;98921.43;223137;183;139653;-61
2023/08/09 14:10:30;;;;;;;4.20;1.70;;;;;;;20.82;56.42;98921.52;223088;183;148580;-62
2023/08/09 14:15:33;;;;;;;70.90;47.70;;;;;;;20.78;56.26;98918.19;223052;182;138663;-64
2023/08/09 14:20:37;;;;;;;6.30;3.20;;;;;;;20.76;56.36;98917.67;223102;182;138105;-62
2023/08/09 14:25:41;;;;;;;3.70;2.00;;;;;;;20.80;56.51;98914.56;223021;183;147435;-61
2023/08/09 14:30:44;;;;;;;5.20;2.00;;;;;;;20.81;56.32;98913.75;223148;183;139542;-62
2023/08/09 14:35:48;;;;;;;3.60;2.10;;;;;;;20.82;56.77;98911.56;223198;183;137004;-62
2023/08/09 14:40:53;;;;;;;2.70;1.80;;;;;;;20.97;57.13;98904.99;223159;182;147643;-61
2023/08/09 14:45:56;;;;;;;74.00;53.00;;;;;;;21.15;56.38;98901.77;223131;183;141932;-63
2023/08/09 14:51:01;;;;;;;4.70;3.70;;;;;;;21.24;56.32;98903.15;223211;183;138731;-61
2023/08/09 14:56:04;;;;;;;41.10;31.50;;;;;;;21.25;55.89;98897.39;223029;183;147820;-64
2023/08/09 15:01:08;;;;;;;5.30;2.10;;;;;;;21.22;55.30;98893.27;223139;183;139333;-63
2023/08/09 15:06:11;;;;;;;3.30;1.80;;;;;;;21.17;54.71;98897.09;223095;182;138251;-64
2023/08/09 15:11:18;;;;;;;2.20;1.30;;;;;;;21.08;53.65;98896.59;223217;183;148158;-63
2023/08/09 15:16:21;;;;;;;90.40;74.90;;;;;;;21.04;53.70;98895.91;223125;183;139068;-63
2023/08/09 15:21:25;;;;;;;3.40;2.50;;;;;;;21.04;53.09;98905.68;223141;182;137148;-61
2023/08/09 15:26:28;;;;;;;3.10;2.00;;;;;;;20.98;51.88;98906.85;223171;183;149194;-62
2023/08/09 15:31:31;;;;;;;3.10;1.20;;;;;;;20.91;51.36;98913.56;223037;183;139116;-62
2023/08/09 15:36:36;;;;;;;1.50;1.00;;;;;;;20.87;51.70;98914.56;223077;184;137268;-64
2023/08/09 15:41:40;;;;;;;46.00;39.60;;;;;;;20.82;51.39;98913.82;223015;183;147691;-62
2023/08/09 15:48:31;;;;;;;2.20;1.40;;;;;;;20.86;51.42;98914.29;220645;194;666508;-65
2023/08/09 15:53:34;;;;;;;3.50;1.10;;;;;;;20.83;51.43;98920.02;222674;186;140234;-68
2023/08/09 15:58:37;;;;;;;2.60;1.20;;;;;;;20.85;51.67;98924.09;222899;185;145728;-67
2023/08/09 16:03:42;;;;;;;1.20;0.90;;;;;;;20.82;51.65;98936.83;222847;185;138555;-67
2023/08/09 16:08:46;;;;;;;1.70;1.10;;;;;;;20.77;51.77;98937.38;222969;185;136809;-69
2023/08/09 16:13:49;;;;;;;12.60;11.30;;;;;;;20.77;51.92;98932.88;222793;185;144108;-65
2023/08/09 16:18:52;;;;;;;2.10;1.90;;;;;;;20.72;52.21;98936.61;222850;185;139012;-65
2023/08/09 16:23:56;;;;;;;1.60;1.20;;;;;;;20.75;52.38;98941.20;222859;185;137598;-64
2023/08/09 16:28:59;;;;;;;1.80;1.10;;;;;;;20.71;52.56;98945.39;222876;185;145149;-61
2023/08/09 16:34:03;;;;;;;1.80;1.00;;;;;;;20.73;52.54;98949.19;222852;185;138694;-61
2023/08/09 16:39:07;;;;;;;1.90;1.20;;;;;;;20.73;52.54;98950.79;222926;185;137355;-61
2023/08/09 16:44:10;;;;;;;72.80;53.10;;;;;;;20.76;52.47;98956.98;223048;183;147083;-61
2023/08/09 16:49:13;;;;;;;3.90;3.30;;;;;;;20.74;52.27;98961.50;223132;182;140004;-61
2023/08/09 16:54:25;;;;;;;1.60;1.30;;;;;;;20.70;52.56;98960.84;223092;183;136426;-61
2023/08/09 16:59:29;;;;;;;1.90;1.10;;;;;;;20.72;52.80;98961.57;223122;183;146240;-60
2023/08/09 17:04:32;;;;;;;4.10;1.00;;;;;;;20.73;52.61;98967.90;223144;183;139780;-60
2023/08/09 17:09:35;;;;;;;2.20;1.30;;;;;;;20.66;52.66;98967.59;223110;183;137165;-60
2023/08/09 17:14:40;;;;;;;2.20;1.10;;;;;;;20.57;52.72;98971.55;223240;183;146742;-60
2023/08/09 17:19:43;;;;;;;1.80;1.00;;;;;;;20.50;52.87;98968.02;223031;183;138703;-62
2023/08/09 17:24:46;;;;;;;26.20;21.10;;;;;;;20.46;53.26;98968.80;223205;183;137000;-61
2023/08/09 17:29:50;;;;;;;2.30;1.50;;;;;;;20.46;53.56;98968.05;223104;183;145869;-60
2023/08/09 17:34:53;;;;;;;2.30;1.30;;;;;;;20.46;53.67;98971.05;223169;183;140938;-60
2023/08/09 17:39:56;;;;;;;3.50;1.30;;;;;;;20.47;53.69;98974.61;223211;183;137553;-60
2023/08/09 17:45:03;;;;;;;3.10;1.10;;;;;;;20.44;53.69;98976.86;223293;183;147151;-60
2023/08/09 17:50:18;;;;;;;3.30;1.60;;;;;;;20.37;53.97;98977.60;223101;183;141307;-60
2023/08/09 17:55:22;;;;;;;;;;;;;;;20.30;54.22;98981.91;223176;183;137166;-60
2023/08/09 18:00:28;;;;;;;3.20;1.20;;;;;;;20.23;54.40;98986.41;223135;183;146107;-60
2023/08/09 18:05:32;;;;;;;2.20;1.20;;;;;;;20.19;54.83;98990.48;223134;183;138751;-61
2023/08/09 18:10:35;;;;;;;45.30;39.90;;;;;;;20.16;54.86;98997.23;223103;183;136771;-59
2023/08/09 18:15:38;;;;;;;6.10;3.80;;;;;;;20.17;55.12;99001.44;223091;183;145782;-59
2023/08/09 18:20:42;;;;;;;5.30;2.70;;;;;;;20.20;55.06;99003.11;223178;182;139721;-60
2023/08/09 18:25:45;;;;;;;2.60;1.50;;;;;;;20.20;55.02;99008.41;223148;183;137816;-61
2023/08/09 18:30:49;;;;;;;11.80;8.40;;;;;;;20.14;55.34;99017.85;223044;184;147892;-60
2023/08/09 18:36:02;;;;;;;2.90;1.70;;;;;;;20.09;55.31;99028.97;223132;183;139457;-60
2023/08/09 18:41:05;;;;;;;2.60;1.40;;;;;;;20.03;55.56;99033.55;223044;183;138220;-60
2023/08/09 18:46:10;;;;;;;1.90;1.30;;;;;;;20.00;55.56;99036.19;223136;183;145914;-60
2023/08/09 18:51:14;;;;;;;4.30;1.50;;;;;;;19.95;55.73;99038.16;223130;182;138577;-60
2023/08/09 18:56:18;;;;;;;43.80;39.10;;;;;;;19.88;56.00;99041.01;223195;183;138024;-61
2023/08/09 19:01:21;;;;;;;5.20;3.30;;;;;;;19.85;56.41;99050.23;222975;184;148304;-62
2023/08/09 19:06:25;;;;;;;3.40;1.80;;;;;;;19.84;56.28;99048.42;223117;183;139936;-61
2023/08/09 19:11:28;;;;;;;4.80;1.60;;;;;;;19.77;56.41;99052.73;223058;183;137253;-61
2023/08/09 19:16:31;;;;;;;3.80;1.30;;;;;;;19.73;56.75;99055.11;223123;183;145661;-62
2023/08/09 19:21:45;;;;;;;4.00;1.60;;;;;;;19.68;56.93;99056.34;223136;182;139421;-60
2023/08/09 19:26:49;;;;;;;4.00;1.70;;;;;;;19.63;57.12;99055.02;223130;183;137127;-59
2023/08/09 19:31:53;;;;;;;28.20;21.40;;;;;;;19.61;57.39;99058.73;223113;182;147626;-61
2023/08/09 19:36:56;;;;;;;2.70;2.20;;;;;;;19.63;57.48;99059.18;223155;183;139939;-61
2023/08/09 19:42:01;;;;;;;2.00;1.50;;;;;;;19.55;57.56;99062.98;223014;180;138407;-60
2023/08/09 19:47:04;;;;;;;2.80;1.40;;;;;;;19.44;57.66;99063.66;223088;183;147651;-60
2023/08/09 19:52:08;;;;;;;2.90;1.60;;;;;;;19.35;58.08;99067.23;223082;183;138827;-60
2023/08/09 19:57:12;;;;;;;2.50;1.80;;;;;;;19.32;58.37;99075.36;223195;183;136719;-60
2023/08/09 20:02:16;;;;;;;5.30;1.90;;;;;;;19.28;58.48;99076.09;223044;183;158819;-61
2023/08/09 20:07:21;;;;;;;2.70;1.70;;;;;;;19.22;58.83;99083.70;223125;183;140197;-61
2023/08/09 20:12:25;;;;;;;2.10;1.40;;;;;;;19.09;59.47;99092.10;223178;183;138405;-61
2023/08/09 20:17:28;;;;;;;2.20;1.30;;;;;;;18.96;60.15;99098.60;223181;183;145833;-60
2023/08/09 20:22:32;;;;;;;1.60;1.30;;;;;;;18.81;60.74;99111.70;223282;182;139898;-61
2023/08/09 20:27:35;;;;;;;3.00;1.90;;;;;;;18.68;61.39;99117.21;223244;183;137881;-60
2023/08/09 20:32:38;;;;;;;1.50;1.10;;;;;;;18.56;62.47;99122.97;223105;183;146967;-61
2023/08/09 20:37:42;;;;;;;1.70;1.20;;;;;;;18.45;63.30;99127.95;223202;183;138541;-63
2023/08/09 20:42:46;;;;;;;2.20;1.30;;;;;;;18.38;63.92;99136.02;223278;183;137177;-62
2023/08/09 20:48:00;;;;;;;3.00;1.50;;;;;;;18.35;64.25;99146.52;223308;183;145993;-61
2023/08/09 20:53:03;;;;;;;2.00;1.50;;;;;;;18.35;64.68;99148.55;223282;182;138727;-61
2023/08/09 20:58:06;;;;;;;2.00;1.40;;;;;;;18.34;64.92;99150.29;223112;183;140715;-60
2023/08/09 21:03:10;;;;;;;2.40;1.50;;;;;;;18.29;65.21;99157.67;223257;183;147227;-63
2023/08/09 21:08:14;;;;;;;2.70;1.70;;;;;;;18.18;65.82;99160.14;223006;183;141140;-61
2023/08/09 21:13:17;;;;;;;2.30;1.70;;;;;;;18.09;66.26;99168.89;223225;183;136982;-61
2023/08/09 21:18:21;;;;;;;4.90;1.70;;;;;;;18.00;66.67;99181.86;223233;182;145931;-61
2023/08/09 21:23:24;;;;;;;2.90;2.00;;;;;;;17.95;67.08;99190.61;223223;182;139041;-63
2023/08/09 21:28:47;;;;;;;4.00;1.50;;;;;;;17.94;67.09;99193.55;223203;183;137258;-62
2023/08/09 21:33:50;;;;;;;3.20;1.70;;;;;;;17.98;66.74;99204.88;223169;183;145857;-62
2023/08/09 21:38:53;;;;;;;2.10;1.90;;;;;;;17.95;66.76;99216.13;223143;183;139548;-62
2023/08/09 21:43:57;;;;;;;5.00;2.50;;;;;;;17.85;67.05;99224.41;223207;183;138705;-61
2023/08/09 21:49:00;;;;;;;3.10;2.20;;;;;;;17.72;67.39;99234.21;223217;183;146244;-61
2023/08/09 21:54:04;;;;;;;3.60;2.50;;;;;;;17.67;67.89;99242.09;223236;183;140310;-61
2023/08/09 21:59:07;;;;;;;4.80;2.80;;;;;;;17.56;68.50;99252.02;223274;184;137010;-61
2023/08/09 22:04:11;;;;;;;4.40;3.10;;;;;;;17.48;68.89;99255.53;223134;183;147209;-61
2023/08/09 22:09:14;;;;;;;7.00;3.20;;;;;;;17.45;69.08;99258.17;223080;184;140244;-62
2023/08/09 22:14:18;;;;;;;6.70;3.30;;;;;;;17.51;69.25;99265.20;223147;183;136890;-61
2023/08/09 22:25:21;;;;;;;7.00;4.10;;;;;;;17.55;69.61;99262.52;221139;193;668309;-62
2023/08/09 22:30:24;;;;;;;8.50;4.60;;;;;;;17.54;69.56;99262.21;223021;183;137075;-60
2023/08/09 22:35:27;;;;;;;8.60;4.50;;;;;;;17.50;69.46;99260.63;223030;183;144445;-59
2023/08/09 22:40:30;;;;;;;5.30;4.30;;;;;;;17.46;69.80;99264.52;223051;183;140586;-60
2023/08/09 22:45:35;;;;;;;5.30;3.80;;;;;;;17.39;70.20;99270.53;223210;182;136712;-61
2023/08/09 22:50:38;;;;;;;4.80;3.40;;;;;;;17.35;70.39;99273.77;223244;182;143686;-61
2023/08/09 22:55:42;;;;;;;5.40;3.70;;;;;;;17.36;70.36;99273.28;223111;182;139310;-62
2023/08/09 23:00:46;;;;;;;4.00;3.40;;;;;;;17.40;70.26;99272.64;223192;181;137618;-61
2023/08/09 23:05:49;;;;;;;6.10;3.80;;;;;;;17.37;70.22;99270.92;223253;182;143622;-62
2023/08/09 23:10:58;;;;;;;5.90;3.30;;;;;;;17.32;70.32;99271.34;223245;182;140154;-61
2023/08/09 23:16:01;;;;;;;5.10;3.50;;;;;;;17.26;70.42;99273.61;223131;181;139001;-61
2023/08/09 23:21:05;;;;;;;6.30;3.50;;;;;;;17.23;70.55;99266.88;223301;182;146228;-61
2023/08/09 23:26:08;;;;;;;4.10;2.80;;;;;;;17.18;70.53;99271.59;223246;182;139047;-60
2023/08/09 23:31:11;;;;;;;3.90;3.00;;;;;;;17.12;70.51;99282.88;223135;182;138997;-61
2023/08/09 23:36:14;;;;;;;4.00;2.80;;;;;;;17.10;70.62;99282.38;223320;181;145761;-61
2023/08/09 23:41:28;;;;;;;6.50;3.00;;;;;;;17.15;70.71;99295.02;223219;182;139255;-61